sensor_id;sensor_type;location;lat;lon;timestamp;pressure;altitude;pressure_sealevel;temperature;humidity
20156;BME280;10238;49.556;10.956;2023-03-03T00:00:37;98499.38;;;1.74;100.00
20156;BME280;10238;49.556;10.956;2023-03-03T00:03:25;98514.06;;;1.76;100.00
20156;BME280;10238;49.556;10.956;2023-03-03T00:06:14;98512.38;;;1.75;100.00
20156;BME280;10238;49.556;10.956;2023-03-03T00:09:02;98505.81;;;1.68;100.00
20156;BME280;10238;49.556;10.956;2023-03-03T00:11:55;98495.00;;;1.60;100.00
20156;BME280;10238;49.556;10.956;2023-03-03T00:14:45;98499.66;;;1.55;100.00
20156;BME280;10238;49.556;10.956;2023-03-03T00:17:33;98500.91;;;1.50;100.00
20156;BME280;10238;49.556;10.956;2023-03-03T00:20:34;98496.03;;;1.44;100.00
20156;BME280;10238;49.556;10.956;2023-03-03T00:23:35;98503.03;;;1.43;100.00
20156;BME280;10238;49.556;10.956;2023-03-03T00:26:28;98508.78;;;1.36;100.00
20156;BME280;10238;49.556;10.956;2023-03-03T00:29:26;98510.16;;;1.27;100.00
20156;BME280;10238;49.556;10.956;2023-03-03T00:32:23;98505.09;;;1.24;100.00
20156;BME280;10238;49.556;10.956;2023-03-03T00:35:23;98503.63;;;1.20;100.00
20156;BME280;10238;49.556;10.956;2023-03-03T00:38:15;98503.72;;;1.19;100.00
20156;BME280;10238;49.556;10.956;2023-03-03T00:41:13;98514.63;;;1.11;100.00
20156;BME280;10238;49.556;10.956;2023-03-03T00:44:39;98513.25;;;1.06;100.00
20156;BME280;10238;49.556;10.956;2023-03-03T00:47:30;98521.00;;;1.07;100.00
20156;BME280;10238;49.556;10.956;2023-03-03T00:50:27;98516.31;;;0.98;100.00
20156;BME280;10238;49.556;10.956;2023-03-03T00:53:16;98523.53;;;0.95;100.00
20156;BME280;10238;49.556;10.956;2023-03-03T00:56:04;98515.75;;;0.93;100.00
20156;BME280;10238;49.556;10.956;2023-03-03T00:58:52;98520.41;;;0.88;100.00
20156;BME280;10238;49.556;10.956;2023-03-03T01:01:40;98517.25;;;0.83;100.00
20156;BME280;10238;49.556;10.956;2023-03-03T01:04:30;98520.22;;;0.77;100.00
20156;BME280;10238;49.556;10.956;2023-03-03T01:07:18;98528.50;;;0.70;100.00
20156;BME280;10238;49.556;10.956;2023-03-03T01:10:06;98529.03;;;0.61;100.00
20156;BME280;10238;49.556;10.956;2023-03-03T01:12:55;98526.53;;;0.59;100.00
20156;BME280;10238;49.556;10.956;2023-03-03T01:15:44;98529.03;;;0.61;100.00
20156;BME280;10238;49.556;10.956;2023-03-03T01:18:32;98532.59;;;0.60;100.00
20156;BME280;10238;49.556;10.956;2023-03-03T01:21:21;98528.38;;;0.57;100.00
20156;BME280;10238;49.556;10.956;2023-03-03T01:24:09;98525.84;;;0.56;100.00
20156;BME280;10238;49.556;10.956;2023-03-03T01:26:57;98520.91;;;0.51;100.00
20156;BME280;10238;49.556;10.956;2023-03-03T01:29:45;98521.25;;;0.45;100.00
20156;BME280;10238;49.556;10.956;2023-03-03T01:32:34;98518.31;;;0.36;100.00
20156;BME280;10238;49.556;10.956;2023-03-03T01:35:22;98505.59;;;0.30;100.00
20156;BME280;10238;49.556;10.956;2023-03-03T01:38:11;98502.69;;;0.20;100.00
20156;BME280;10238;49.556;10.956;2023-03-03T01:40:59;98505.28;;;0.20;100.00
20156;BME280;10238;49.556;10.956;2023-03-03T01:43:49;98504.69;;;0.15;100.00
20156;BME280;10238;49.556;10.956;2023-03-03T01:46:50;98511.91;;;0.12;100.00
20156;BME280;10238;49.556;10.956;2023-03-03T01:49:43;98501.69;;;0.07;100.00
20156;BME280;10238;49.556;10.956;2023-03-03T01:52:34;98504.41;;;0.06;100.00
20156;BME280;10238;49.556;10.956;2023-03-03T01:55:29;98506.06;;;0.07;100.00
20156;BME280;10238;49.556;10.956;2023-03-03T01:58:21;98506.16;;;0.05;100.00
20156;BME280;10238;49.556;10.956;2023-03-03T02:01:14;98498.56;;;0.00;100.00
20156;BME280;10238;49.556;10.956;2023-03-03T02:04:04;98502.13;;;-0.01;100.00
20156;BME280;10238;49.556;10.956;2023-03-03T02:06:56;98505.94;;;-0.06;100.00
20156;BME280;10238;49.556;10.956;2023-03-03T02:09:51;98507.09;;;-0.12;100.00
20156;BME280;10238;49.556;10.956;2023-03-03T02:12:44;98502.13;;;-0.16;100.00
20156;BME280;10238;49.556;10.956;2023-03-03T02:15:34;98501.38;;;-0.18;100.00
20156;BME280;10238;49.556;10.956;2023-03-03T02:18:22;98496.31;;;-0.21;100.00
20156;BME280;10238;49.556;10.956;2023-03-03T02:21:13;98502.50;;;-0.22;100.00
20156;BME280;10238;49.556;10.956;2023-03-03T02:24:06;98500.69;;;-0.22;100.00
20156;BME280;10238;49.556;10.956;2023-03-03T02:26:57;98502.66;;;-0.25;100.00
20156;BME280;10238;49.556;10.956;2023-03-03T02:29:45;98498.59;;;-0.31;100.00
20156;BME280;10238;49.556;10.956;2023-03-03T02:32:33;98502.38;;;-0.36;100.00
20156;BME280;10238;49.556;10.956;2023-03-03T02:35:33;98506.09;;;-0.40;100.00
20156;BME280;10238;49.556;10.956;2023-03-03T02:38:25;98508.09;;;-0.45;100.00
20156;BME280;10238;49.556;10.956;2023-03-03T02:41:15;98501.22;;;-0.46;100.00
20156;BME280;10238;49.556;10.956;2023-03-03T02:44:09;98502.88;;;-0.45;100.00
20156;BME280;10238;49.556;10.956;2023-03-03T02:46:58;98498.44;;;-0.43;100.00
20156;BME280;10238;49.556;10.956;2023-03-03T02:49:46;98507.44;;;-0.49;100.00
20156;BME280;10238;49.556;10.956;2023-03-03T02:52:34;98503.28;;;-0.53;100.00
20156;BME280;10238;49.556;10.956;2023-03-03T02:55:23;98505.91;;;-0.53;100.00
20156;BME280;10238;49.556;10.956;2023-03-03T02:58:11;98506.09;;;-0.56;100.00
20156;BME280;10238;49.556;10.956;2023-03-03T03:01:00;98512.47;;;-0.61;100.00
20156;BME280;10238;49.556;10.956;2023-03-03T03:03:48;98519.56;;;-0.63;100.00
20156;BME280;10238;49.556;10.956;2023-03-03T03:06:37;98517.03;;;-0.65;100.00
20156;BME280;10238;49.556;10.956;2023-03-03T03:09:25;98519.81;;;-0.68;100.00
20156;BME280;10238;49.556;10.956;2023-03-03T03:12:14;98512.22;;;-0.72;100.00
20156;BME280;10238;49.556;10.956;2023-03-03T03:15:05;98515.91;;;-0.76;100.00
20156;BME280;10238;49.556;10.956;2023-03-03T03:17:57;98516.16;;;-0.81;100.00
20156;BME280;10238;49.556;10.956;2023-03-03T03:20:44;98520.59;;;-0.83;100.00
20156;BME280;10238;49.556;10.956;2023-03-03T03:23:34;98526.69;;;-0.82;100.00
20156;BME280;10238;49.556;10.956;2023-03-03T03:26:22;98517.16;;;-0.83;100.00
20156;BME280;10238;49.556;10.956;2023-03-03T03:29:10;98513.94;;;-0.88;100.00
20156;BME280;10238;49.556;10.956;2023-03-03T03:31:58;98521.00;;;-0.90;100.00
20156;BME280;10238;49.556;10.956;2023-03-03T03:34:48;98519.31;;;-0.91;100.00
20156;BME280;10238;49.556;10.956;2023-03-03T03:37:36;98524.53;;;-0.91;100.00
20156;BME280;10238;49.556;10.956;2023-03-03T03:40:24;98523.63;;;-0.90;100.00
20156;BME280;10238;49.556;10.956;2023-03-03T03:43:12;98519.31;;;-0.91;100.00
20156;BME280;10238;49.556;10.956;2023-03-03T03:46:00;98522.88;;;-0.92;100.00
20156;BME280;10238;49.556;10.956;2023-03-03T03:48:48;98531.75;;;-0.96;100.00
20156;BME280;10238;49.556;10.956;2023-03-03T03:51:38;98532.75;;;-0.99;100.00
20156;BME280;10238;49.556;10.956;2023-03-03T03:54:27;98524.16;;;-1.01;100.00
20156;BME280;10238;49.556;10.956;2023-03-03T03:57:15;98522.56;;;-1.03;100.00
20156;BME280;10238;49.556;10.956;2023-03-03T04:00:04;98533.78;;;-1.01;100.00
20156;BME280;10238;49.556;10.956;2023-03-03T04:02:52;98521.78;;;-1.05;100.00
20156;BME280;10238;49.556;10.956;2023-03-03T04:05:40;98514.91;;;-1.06;100.00
20156;BME280;10238;49.556;10.956;2023-03-03T04:08:29;98521.22;;;-1.10;100.00
20156;BME280;10238;49.556;10.956;2023-03-03T04:11:17;98524.75;;;-1.11;100.00
20156;BME280;10238;49.556;10.956;2023-03-03T04:14:05;98517.06;;;-1.14;100.00
20156;BME280;10238;49.556;10.956;2023-03-03T04:16:53;98523.28;;;-1.17;100.00
20156;BME280;10238;49.556;10.956;2023-03-03T04:19:41;98515.53;;;-1.18;100.00
20156;BME280;10238;49.556;10.956;2023-03-03T04:22:30;98527.81;;;-1.20;100.00
20156;BME280;10238;49.556;10.956;2023-03-03T04:25:20;98539.06;;;-1.20;100.00
20156;BME280;10238;49.556;10.956;2023-03-03T04:28:08;98529.50;;;-1.19;100.00
20156;BME280;10238;49.556;10.956;2023-03-03T04:30:56;98528.06;;;-1.25;100.00
20156;BME280;10238;49.556;10.956;2023-03-03T04:33:44;98533.34;;;-1.26;100.00
20156;BME280;10238;49.556;10.956;2023-03-03T04:36:32;98538.56;;;-1.26;100.00
20156;BME280;10238;49.556;10.956;2023-03-03T04:39:20;98538.56;;;-1.26;100.00
20156;BME280;10238;49.556;10.956;2023-03-03T04:42:10;98543.94;;;-1.29;100.00
20156;BME280;10238;49.556;10.956;2023-03-03T04:44:58;98540.63;;;-1.33;100.00
20156;BME280;10238;49.556;10.956;2023-03-03T04:47:46;98542.41;;;-1.33;100.00
20156;BME280;10238;49.556;10.956;2023-03-03T04:50:34;98537.34;;;-1.36;100.00
20156;BME280;10238;49.556;10.956;2023-03-03T04:53:21;98543.44;;;-1.37;100.00
20156;BME280;10238;49.556;10.956;2023-03-03T04:56:09;98541.94;;;-1.41;100.00
20156;BME280;10238;49.556;10.956;2023-03-03T04:58:59;98534.41;;;-1.47;100.00
20156;BME280;10238;49.556;10.956;2023-03-03T05:01:47;98538.09;;;-1.51;100.00
20156;BME280;10238;49.556;10.956;2023-03-03T05:04:36;98542.31;;;-1.49;100.00
20156;BME280;10238;49.556;10.956;2023-03-03T05:07:26;98551.91;;;-1.49;100.00
20156;BME280;10238;49.556;10.956;2023-03-03T05:10:14;98551.75;;;-1.46;100.00
20156;BME280;10238;49.556;10.956;2023-03-03T05:13:05;98551.75;;;-1.46;100.00
20156;BME280;10238;49.556;10.956;2023-03-03T05:15:56;98553.59;;;-1.48;100.00
20156;BME280;10238;49.556;10.956;2023-03-03T05:18:44;98553.75;;;-1.51;100.00
20156;BME280;10238;49.556;10.956;2023-03-03T05:21:33;98557.28;;;-1.52;100.00
20156;BME280;10238;49.556;10.956;2023-03-03T05:24:23;98562.63;;;-1.55;100.00
20156;BME280;10238;49.556;10.956;2023-03-03T05:27:11;98561.84;;;-1.57;100.00
20156;BME280;10238;49.556;10.956;2023-03-03T05:29:59;98554.19;;;-1.60;100.00
20156;BME280;10238;49.556;10.956;2023-03-03T05:32:48;98563.94;;;-1.64;100.00
20156;BME280;10238;49.556;10.956;2023-03-03T05:35:37;98570.13;;;-1.66;100.00
20156;BME280;10238;49.556;10.956;2023-03-03T05:38:25;98568.28;;;-1.64;100.00
20156;BME280;10238;49.556;10.956;2023-03-03T05:41:13;98565.59;;;-1.63;100.00
20156;BME280;10238;49.556;10.956;2023-03-03T05:44:01;98559.53;;;-1.63;100.00
20156;BME280;10238;49.556;10.956;2023-03-03T05:46:49;98570.81;;;-1.63;100.00
20156;BME280;10238;49.556;10.956;2023-03-03T05:49:39;98569.97;;;-1.63;100.00
20156;BME280;10238;49.556;10.956;2023-03-03T05:52:27;98572.72;;;-1.66;100.00
20156;BME280;10238;49.556;10.956;2023-03-03T05:55:15;98573.66;;;-1.67;100.00
20156;BME280;10238;49.556;10.956;2023-03-03T05:58:03;98576.41;;;-1.70;100.00
20156;BME280;10238;49.556;10.956;2023-03-03T06:00:51;98589.44;;;-1.70;100.00
20156;BME280;10238;49.556;10.956;2023-03-03T06:03:39;98586.81;;;-1.70;100.00
20156;BME280;10238;49.556;10.956;2023-03-03T06:06:28;98585.97;;;-1.71;100.00
20156;BME280;10238;49.556;10.956;2023-03-03T06:09:16;98583.50;;;-1.74;100.00
20156;BME280;10238;49.556;10.956;2023-03-03T06:12:05;98578.28;;;-1.74;100.00
20156;BME280;10238;49.556;10.956;2023-03-03T06:14:53;98582.75;;;-1.76;100.00
20156;BME280;10238;49.556;10.956;2023-03-03T06:17:41;98593.25;;;-1.77;100.00
20156;BME280;10238;49.556;10.956;2023-03-03T06:20:29;98602.00;;;-1.78;100.00
20156;BME280;10238;49.556;10.956;2023-03-03T06:23:19;98610.72;;;-1.79;100.00
20156;BME280;10238;49.556;10.956;2023-03-03T06:26:07;98613.38;;;-1.81;100.00
20156;BME280;10238;49.556;10.956;2023-03-03T06:28:55;98615.25;;;-1.83;100.00
20156;BME280;10238;49.556;10.956;2023-03-03T06:31:45;98618.66;;;-1.82;100.00
20156;BME280;10238;49.556;10.956;2023-03-03T06:34:37;98617.84;;;-1.83;100.00
20156;BME280;10238;49.556;10.956;2023-03-03T06:37:25;98620.44;;;-1.83;100.00
20156;BME280;10238;49.556;10.956;2023-03-03T06:40:14;98625.66;;;-1.83;100.00
20156;BME280;10238;49.556;10.956;2023-03-03T06:43:02;98628.03;;;-1.78;100.00
20156;BME280;10238;49.556;10.956;2023-03-03T06:45:50;98632.25;;;-1.76;100.00
20156;BME280;10238;49.556;10.956;2023-03-03T06:48:38;98630.47;;;-1.75;100.00
20156;BME280;10238;49.556;10.956;2023-03-03T06:51:31;98623.22;;;-1.69;100.00
20156;BME280;10238;49.556;10.956;2023-03-03T06:54:24;98635.25;;;-1.66;100.00
20156;BME280;10238;49.556;10.956;2023-03-03T06:57:24;98653.34;;;-1.63;100.00
20156;BME280;10238;49.556;10.956;2023-03-03T07:00:16;98643.78;;;-1.63;100.00
20156;BME280;10238;49.556;10.956;2023-03-03T07:03:11;98653.06;;;-1.57;100.00
20156;BME280;10238;49.556;10.956;2023-03-03T07:06:00;98663.41;;;-1.56;100.00
20156;BME280;10238;49.556;10.956;2023-03-03T07:08:52;98661.66;;;-1.55;100.00
20156;BME280;10238;49.556;10.956;2023-03-03T07:11:43;98659.66;;;-1.50;100.00
20156;BME280;10238;49.556;10.956;2023-03-03T07:14:34;98653.56;;;-1.49;100.00
20156;BME280;10238;49.556;10.956;2023-03-03T07:17:24;98655.09;;;-1.45;100.00
20156;BME280;10238;49.556;10.956;2023-03-03T07:20:18;98664.44;;;-1.41;100.00
20156;BME280;10238;49.556;10.956;2023-03-03T07:23:17;98675.28;;;-1.32;100.00
20156;BME280;10238;49.556;10.956;2023-03-03T07:26:09;98675.81;;;-1.25;100.00
20156;BME280;10238;49.556;10.956;2023-03-03T07:29:00;98672.06;;;-1.20;100.00
20156;BME280;10238;49.556;10.956;2023-03-03T07:31:50;98679.44;;;-1.11;100.00
20156;BME280;10238;49.556;10.956;2023-03-03T07:34:41;98686.28;;;-0.91;100.00
20156;BME280;10238;49.556;10.956;2023-03-03T07:37:35;98689.84;;;-0.92;100.00
20156;BME280;10238;49.556;10.956;2023-03-03T07:40:34;98698.25;;;-0.87;100.00
20156;BME280;10238;49.556;10.956;2023-03-03T07:43:30;98692.81;;;-0.83;100.00
20156;BME280;10238;49.556;10.956;2023-03-03T07:46:24;98688.75;;;-0.71;100.00
20156;BME280;10238;49.556;10.956;2023-03-03T07:49:28;98703.94;;;-0.62;100.00
20156;BME280;10238;49.556;10.956;2023-03-03T07:52:28;98702.03;;;-0.59;100.00
20156;BME280;10238;49.556;10.956;2023-03-03T07:55:26;98706.69;;;-0.48;100.00
20156;BME280;10238;49.556;10.956;2023-03-03T07:58:23;98709.06;;;-0.44;100.00
20156;BME280;10238;49.556;10.956;2023-03-03T08:01:36;98709.53;;;-0.36;100.00
20156;BME280;10238;49.556;10.956;2023-03-03T08:04:34;98709.66;;;-0.22;100.00
20156;BME280;10238;49.556;10.956;2023-03-03T08:07:24;98715.84;;;-0.07;100.00
20156;BME280;10238;49.556;10.956;2023-03-03T08:10:34;98715.09;;;0.07;100.00
20156;BME280;10238;49.556;10.956;2023-03-03T08:13:24;98713.78;;;0.15;100.00
20156;BME280;10238;49.556;10.956;2023-03-03T08:16:26;98711.59;;;0.23;100.00
20156;BME280;10238;49.556;10.956;2023-03-03T08:19:17;98708.34;;;0.35;100.00
20156;BME280;10238;49.556;10.956;2023-03-03T08:22:14;98707.91;;;0.43;100.00
20156;BME280;10238;49.556;10.956;2023-03-03T08:25:03;98709.75;;;0.56;100.00
20156;BME280;10238;49.556;10.956;2023-03-03T08:27:51;98712.47;;;0.70;100.00
20156;BME280;10238;49.556;10.956;2023-03-03T08:30:40;98717.00;;;0.82;100.00
20156;BME280;10238;49.556;10.956;2023-03-03T08:33:28;98719.69;;;0.96;100.00
20156;BME280;10238;49.556;10.956;2023-03-03T08:36:16;98717.47;;;1.04;100.00
20156;BME280;10238;49.556;10.956;2023-03-03T08:39:06;98713.41;;;1.14;100.00
20156;BME280;10238;49.556;10.956;2023-03-03T08:41:55;98715.13;;;1.29;100.00
20156;BME280;10238;49.556;10.956;2023-03-03T08:44:43;98711.22;;;1.36;100.00
20156;BME280;10238;49.556;10.956;2023-03-03T08:47:31;98710.78;;;1.44;100.00
20156;BME280;10238;49.556;10.956;2023-03-03T08:50:20;98703.41;;;1.50;100.00
20156;BME280;10238;49.556;10.956;2023-03-03T08:53:09;98696.88;;;1.57;100.00
20156;BME280;10238;49.556;10.956;2023-03-03T08:55:58;98696.16;;;1.69;100.00
20156;BME280;10238;49.556;10.956;2023-03-03T08:58:46;98700.09;;;1.90;100.00
20156;BME280;10238;49.556;10.956;2023-03-03T09:01:49;98704.97;;;1.96;100.00
20156;BME280;10238;49.556;10.956;2023-03-03T09:04:38;98700.28;;;2.01;100.00
20156;BME280;10238;49.556;10.956;2023-03-03T09:07:26;98701.50;;;2.10;100.00
20156;BME280;10238;49.556;10.956;2023-03-03T09:10:16;98699.53;;;2.28;100.00
20156;BME280;10238;49.556;10.956;2023-03-03T09:13:11;98697.06;;;2.39;100.00
20156;BME280;10238;49.556;10.956;2023-03-03T09:16:00;98699.88;;;2.50;100.00
20156;BME280;10238;49.556;10.956;2023-03-03T09:18:48;98696.97;;;2.54;100.00
20156;BME280;10238;49.556;10.956;2023-03-03T09:21:36;98693.09;;;2.60;100.00
20156;BME280;10238;49.556;10.956;2023-03-03T09:24:26;98698.88;;;2.79;100.00
20156;BME280;10238;49.556;10.956;2023-03-03T09:27:18;98695.84;;;2.85;100.00
20156;BME280;10238;49.556;10.956;2023-03-03T09:30:36;98696.75;;;2.98;100.00
20156;BME280;10238;49.556;10.956;2023-03-03T09:33:27;98693.31;;;3.10;100.00
20156;BME280;10238;49.556;10.956;2023-03-03T09:36:22;98703.75;;;3.24;100.00
20156;BME280;10238;49.556;10.956;2023-03-03T09:39:16;98700.72;;;3.30;100.00
20156;BME280;10238;49.556;10.956;2023-03-03T09:42:32;98709.47;;;3.43;100.00
20156;BME280;10238;49.556;10.956;2023-03-03T09:45:39;98698.56;;;3.49;100.00
20156;BME280;10238;49.556;10.956;2023-03-03T09:48:44;98695.22;;;3.72;100.00
20156;BME280;10238;49.556;10.956;2023-03-03T09:51:59;98700.50;;;3.84;100.00
20156;BME280;10238;49.556;10.956;2023-03-03T09:54:56;98700.28;;;3.87;100.00
20156;BME280;10238;49.556;10.956;2023-03-03T09:58:05;98701.09;;;4.13;100.00
20156;BME280;10238;49.556;10.956;2023-03-03T10:01:12;98700.88;;;4.28;100.00
20156;BME280;10238;49.556;10.956;2023-03-03T10:07:34;98703.94;;;4.71;100.00
20156;BME280;10238;49.556;10.956;2023-03-03T10:17:15;98693.75;;;5.37;100.00
20156;BME280;10238;49.556;10.956;2023-03-03T10:23:51;98696.88;;;5.77;100.00
20156;BME280;10238;49.556;10.956;2023-03-03T10:26:55;98694.53;;;6.07;100.00
20156;BME280;10238;49.556;10.956;2023-03-03T10:30:06;98698.28;;;6.37;100.00
20156;BME280;10238;49.556;10.956;2023-03-03T10:33:03;98699.47;;;6.67;100.00
20156;BME280;10238;49.556;10.956;2023-03-03T10:36:10;98698.66;;;6.98;100.00
20156;BME280;10238;49.556;10.956;2023-03-03T10:39:18;98683.66;;;7.30;100.00
20156;BME280;10238;49.556;10.956;2023-03-03T10:42:27;98686.69;;;7.57;100.00
20156;BME280;10238;49.556;10.956;2023-03-03T10:45:35;98690.75;;;8.02;100.00
20156;BME280;10238;49.556;10.956;2023-03-03T10:48:41;98683.44;;;8.35;100.00
20156;BME280;10238;49.556;10.956;2023-03-03T10:51:41;98678.66;;;8.69;100.00
20156;BME280;10238;49.556;10.956;2023-03-03T10:54:50;98682.44;;;9.44;100.00
20156;BME280;10238;49.556;10.956;2023-03-03T10:57:49;98665.50;;;9.64;100.00
20156;BME280;10238;49.556;10.956;2023-03-03T11:00:47;98674.00;;;9.87;100.00
20156;BME280;10238;49.556;10.956;2023-03-03T11:04:15;98676.34;;;10.18;100.00
20156;BME280;10238;49.556;10.956;2023-03-03T11:07:11;98669.00;;;10.66;100.00
20156;BME280;10238;49.556;10.956;2023-03-03T11:10:10;98655.91;;;10.82;100.00
20156;BME280;10238;49.556;10.956;2023-03-03T11:13:07;98655.13;;;11.35;100.00
20156;BME280;10238;49.556;10.956;2023-03-03T11:16:09;98657.56;;;11.81;100.00
20156;BME280;10238;49.556;10.956;2023-03-03T11:19:20;98651.72;;;12.03;99.21
20156;BME280;10238;49.556;10.956;2023-03-03T11:22:22;98657.13;;;12.44;100.00
20156;BME280;10238;49.556;10.956;2023-03-03T11:25:23;98655.09;;;12.72;100.00
20156;BME280;10238;49.556;10.956;2023-03-03T11:28:26;98639.81;;;12.90;100.00
20156;BME280;10238;49.556;10.956;2023-03-03T11:31:22;98638.91;;;13.15;93.36
20156;BME280;10238;49.556;10.956;2023-03-03T11:37:37;98642.28;;;13.89;95.31
20156;BME280;10238;49.556;10.956;2023-03-03T11:40:31;98638.59;;;13.98;87.33
20156;BME280;10238;49.556;10.956;2023-03-03T11:43:27;98631.84;;;14.42;90.72
20156;BME280;10238;49.556;10.956;2023-03-03T11:46:26;98629.13;;;14.58;88.26
20156;BME280;10238;49.556;10.956;2023-03-03T11:49:23;98624.31;;;14.84;89.62
20156;BME280;10238;49.556;10.956;2023-03-03T11:52:21;98617.22;;;15.22;89.71
20156;BME280;10238;49.556;10.956;2023-03-03T11:55:14;98610.72;;;15.47;89.20
20156;BME280;10238;49.556;10.956;2023-03-03T11:58:11;98609.22;;;16.04;84.38
20156;BME280;10238;49.556;10.956;2023-03-03T12:01:05;98612.28;;;16.16;79.54
20156;BME280;10238;49.556;10.956;2023-03-03T12:03:59;98606.91;;;16.16;80.46
20156;BME280;10238;49.556;10.956;2023-03-03T12:07:13;98605.22;;;16.52;79.50
20156;BME280;10238;49.556;10.956;2023-03-03T12:10:16;98598.16;;;16.80;77.86
20156;BME280;10238;49.556;10.956;2023-03-03T12:13:15;98583.69;;;16.95;77.20
20156;BME280;10238;49.556;10.956;2023-03-03T12:16:11;98581.50;;;17.05;72.64
20156;BME280;10238;49.556;10.956;2023-03-03T12:19:18;98587.22;;;17.17;72.04
20156;BME280;10238;49.556;10.956;2023-03-03T12:22:31;98573.16;;;17.36;72.24
20156;BME280;10238;49.556;10.956;2023-03-03T12:25:28;98564.03;;;17.52;71.92
20156;BME280;10238;49.556;10.956;2023-03-03T12:28:22;98563.25;;;17.58;74.59
20156;BME280;10238;49.556;10.956;2023-03-03T12:31:23;98559.59;;;17.65;71.57
20156;BME280;10238;49.556;10.956;2023-03-03T12:34:23;98554.31;;;17.78;72.50
20156;BME280;10238;49.556;10.956;2023-03-03T12:37:22;98547.63;;;17.95;72.26
20156;BME280;10238;49.556;10.956;2023-03-03T12:40:18;98550.88;;;18.18;72.03
20156;BME280;10238;49.556;10.956;2023-03-03T12:43:22;98542.41;;;18.21;73.52
20156;BME280;10238;49.556;10.956;2023-03-03T12:46:20;98542.47;;;18.34;71.84
20156;BME280;10238;49.556;10.956;2023-03-03T12:49:14;98534.75;;;18.59;70.12
20156;BME280;10238;49.556;10.956;2023-03-03T12:52:09;98537.44;;;18.59;67.67
20156;BME280;10238;49.556;10.956;2023-03-03T12:55:10;98540.38;;;18.64;68.51
20156;BME280;10238;49.556;10.956;2023-03-03T12:58:10;98533.38;;;18.76;69.50
20156;BME280;10238;49.556;10.956;2023-03-03T13:01:09;98537.53;;;18.78;65.98
20156;BME280;10238;49.556;10.956;2023-03-03T13:04:07;98535.06;;;18.83;64.26
20156;BME280;10238;49.556;10.956;2023-03-03T13:07:03;98529.91;;;18.88;67.96
20156;BME280;10238;49.556;10.956;2023-03-03T13:10:07;98540.03;;;18.86;65.61
20156;BME280;10238;49.556;10.956;2023-03-03T13:12:59;98533.81;;;18.73;64.50
20156;BME280;10238;49.556;10.956;2023-03-03T13:15:59;98531.91;;;18.73;64.30
20156;BME280;10238;49.556;10.956;2023-03-03T13:18:56;98533.59;;;18.74;64.16
20156;BME280;10238;49.556;10.956;2023-03-03T13:21:49;98529.97;;;18.54;61.41
20156;BME280;10238;49.556;10.956;2023-03-03T13:24:54;98522.09;;;18.46;60.68
20156;BME280;10238;49.556;10.956;2023-03-03T13:27:47;98521.63;;;18.43;61.99
20156;BME280;10238;49.556;10.956;2023-03-03T13:30:41;98523.59;;;18.28;62.51
20156;BME280;10238;49.556;10.956;2023-03-03T13:33:34;98519.44;;;18.25;59.75
20156;BME280;10238;49.556;10.956;2023-03-03T13:36:25;98514.38;;;18.03;59.33
20156;BME280;10238;49.556;10.956;2023-03-03T13:39:20;98517.56;;;17.85;59.91
20156;BME280;10238;49.556;10.956;2023-03-03T13:42:18;98515.19;;;17.69;59.66
20156;BME280;10238;49.556;10.956;2023-03-03T13:45:17;98517.53;;;17.58;58.24
20156;BME280;10238;49.556;10.956;2023-03-03T13:48:09;98508.28;;;17.60;59.90
20156;BME280;10238;49.556;10.956;2023-03-03T13:51:09;98510.81;;;17.68;61.12
20156;BME280;10238;49.556;10.956;2023-03-03T13:54:08;98514.91;;;17.64;61.91
20156;BME280;10238;49.556;10.956;2023-03-03T13:57:32;98515.69;;;17.58;62.36
20156;BME280;10238;49.556;10.956;2023-03-03T14:00:31;98510.69;;;17.55;62.00
20156;BME280;10238;49.556;10.956;2023-03-03T14:03:38;98505.09;;;17.29;61.66
20156;BME280;10238;49.556;10.956;2023-03-03T14:06:29;98507.34;;;17.04;60.98
20156;BME280;10238;49.556;10.956;2023-03-03T14:09:50;98499.25;;;16.83;60.42
20156;BME280;10238;49.556;10.956;2023-03-03T14:12:46;98504.78;;;16.61;61.60
20156;BME280;10238;49.556;10.956;2023-03-03T14:15:47;98512.41;;;16.43;60.13
20156;BME280;10238;49.556;10.956;2023-03-03T14:18:39;98510.16;;;16.32;60.70
20156;BME280;10238;49.556;10.956;2023-03-03T14:21:39;98516.28;;;15.97;59.17
20156;BME280;10238;49.556;10.956;2023-03-03T14:24:28;98515.00;;;15.93;59.88
20156;BME280;10238;49.556;10.956;2023-03-03T14:27:24;98505.28;;;15.92;62.03
20156;BME280;10238;49.556;10.956;2023-03-03T14:30:28;98505.09;;;15.64;60.92
20156;BME280;10238;49.556;10.956;2023-03-03T14:33:22;98506.66;;;15.36;61.36
20156;BME280;10238;49.556;10.956;2023-03-03T14:36:13;98509.84;;;15.40;60.06
20156;BME280;10238;49.556;10.956;2023-03-03T14:39:27;98499.03;;;15.25;61.87
20156;BME280;10238;49.556;10.956;2023-03-03T14:42:31;98507.38;;;15.07;61.14
20156;BME280;10238;49.556;10.956;2023-03-03T14:45:28;98507.50;;;14.91;61.00
20156;BME280;10238;49.556;10.956;2023-03-03T14:48:19;98501.47;;;14.67;60.39
20156;BME280;10238;49.556;10.956;2023-03-03T14:51:23;98499.41;;;14.54;62.05
20156;BME280;10238;49.556;10.956;2023-03-03T14:54:21;98497.53;;;14.55;62.11
20156;BME280;10238;49.556;10.956;2023-03-03T14:57:14;98494.41;;;14.51;62.75
20156;BME280;10238;49.556;10.956;2023-03-03T15:00:08;98495.53;;;14.57;65.82
20156;BME280;10238;49.556;10.956;2023-03-03T15:03:20;98499.59;;;14.45;65.61
20156;BME280;10238;49.556;10.956;2023-03-03T15:06:10;98498.09;;;14.50;69.05
20156;BME280;10238;49.556;10.956;2023-03-03T15:09:32;98491.72;;;14.51;69.12
20156;BME280;10238;49.556;10.956;2023-03-03T15:12:23;98496.91;;;14.53;69.30
20156;BME280;10238;49.556;10.956;2023-03-03T15:15:17;98498.91;;;14.51;69.49
20156;BME280;10238;49.556;10.956;2023-03-03T15:18:10;98497.06;;;14.51;69.20
20156;BME280;10238;49.556;10.956;2023-03-03T15:21:02;98490.34;;;14.55;68.69